createdAt,value
2019-05-21T00:00:27.036Z,12.40
2019-05-21T00:02:55.675Z,12.50
2019-05-21T00:05:24.302Z,12.40
2019-05-21T00:07:52.956Z,12.40
2019-05-21T00:10:21.526Z,12.50
2019-05-21T00:12:50.166Z,12.60
2019-05-21T00:15:18.798Z,12.70
2019-05-21T00:17:47.326Z,12.60
2019-05-21T00:20:16.353Z,12.70
2019-05-21T00:22:45.041Z,12.80
2019-05-21T00:25:16.999Z,12.80
2019-05-21T00:27:44.353Z,12.80
2019-05-21T00:30:49.680Z,13.00
2019-05-21T00:33:54.966Z,12.90
2019-05-21T00:37:01.338Z,13.00
2019-05-21T00:40:06.078Z,12.80
2019-05-21T00:42:37.654Z,12.70
2019-05-21T00:45:09.276Z,12.80
2019-05-21T00:47:39.446Z,12.70
2019-05-21T00:50:08.446Z,12.60
2019-05-21T00:52:36.941Z,12.70
2019-05-21T00:55:08.442Z,12.70
2019-05-21T00:57:36.926Z,12.70
2019-05-21T01:00:07.148Z,12.70
2019-05-21T01:02:35.763Z,12.60
2019-05-21T01:05:05.188Z,12.70
2019-05-21T01:07:33.677Z,12.50
2019-05-21T01:10:02.543Z,12.60
2019-05-21T01:12:31.245Z,12.60
2019-05-21T01:14:59.797Z,12.60
2019-05-21T01:17:28.284Z,12.70
2019-05-21T01:19:56.859Z,12.70
2019-05-21T01:22:25.369Z,12.60
2019-05-21T01:24:54.270Z,12.50
2019-05-21T01:27:22.859Z,12.60
2019-05-21T01:29:51.497Z,12.70
2019-05-21T01:32:20.137Z,12.80
2019-05-21T01:34:48.646Z,12.80
2019-05-21T01:37:17.204Z,12.60
2019-05-21T01:39:45.783Z,12.70
2019-05-21T01:42:14.255Z,12.70
2019-05-21T01:44:42.743Z,12.70
2019-05-21T01:47:11.387Z,12.60
2019-05-21T01:49:39.961Z,12.50
2019-05-21T01:52:08.471Z,12.50
2019-05-21T01:54:36.952Z,12.60
2019-05-21T01:57:05.465Z,12.60
2019-05-21T01:59:34.034Z,12.70
2019-05-21T02:02:02.560Z,12.60
2019-05-21T02:04:31.216Z,12.70
2019-05-21T02:06:59.859Z,12.60
2019-05-21T02:09:28.822Z,12.60
2019-05-21T02:11:57.309Z,12.80
2019-05-21T02:14:25.938Z,12.80
2019-05-21T02:16:54.583Z,12.70
2019-05-21T02:19:23.260Z,12.60
2019-05-21T02:21:51.966Z,12.60
2019-05-21T02:24:20.515Z,12.70
2019-05-21T02:26:49.132Z,12.70
2019-05-21T02:29:17.813Z,12.70
2019-05-21T02:31:46.370Z,12.70
2019-05-21T02:34:14.901Z,12.70
2019-05-21T02:36:43.601Z,12.70
2019-05-21T02:39:12.217Z,12.70
2019-05-21T02:41:40.875Z,12.60
2019-05-21T02:44:09.453Z,12.60
2019-05-21T02:46:38.120Z,12.60
2019-05-21T02:49:06.748Z,12.60
2019-05-21T02:51:35.295Z,12.70
2019-05-21T02:54:03.863Z,12.60
2019-05-21T02:56:32.490Z,12.70
2019-05-21T02:59:00.956Z,12.70
2019-05-21T03:01:34.076Z,12.70
2019-05-21T03:04:02.679Z,12.70
2019-05-21T03:06:31.229Z,12.50
2019-05-21T03:08:59.932Z,12.50
2019-05-21T03:11:28.544Z,12.50
2019-05-21T03:13:57.070Z,12.60
2019-05-21T03:16:25.639Z,12.50
2019-05-21T03:18:54.210Z,12.40
2019-05-21T03:21:22.797Z,12.30
2019-05-21T03:23:51.382Z,12.40
2019-05-21T03:26:19.930Z,12.50
2019-05-21T03:28:48.567Z,12.50
2019-05-21T03:31:18.231Z,12.30
2019-05-21T03:33:46.789Z,12.30
2019-05-21T03:36:31.622Z,12.30
2019-05-21T03:38:45.656Z,12.20
2019-05-21T03:41:14.191Z,12.20
2019-05-21T03:43:42.742Z,12.20
2019-05-21T03:46:11.223Z,12.20
2019-05-21T03:48:39.806Z,12.20
2019-05-21T03:51:08.423Z,12.30
2019-05-21T03:53:37.015Z,12.30
2019-05-21T03:56:05.546Z,12.40
2019-05-21T03:58:34.056Z,12.50
2019-05-21T04:01:02.593Z,12.30
2019-05-21T04:03:31.129Z,12.20
2019-05-21T04:05:59.693Z,12.10
2019-05-21T04:08:28.233Z,12.10
2019-05-21T04:10:56.852Z,12.10
2019-05-21T04:13:25.749Z,12.00
2019-05-21T04:15:58.762Z,11.90
2019-05-21T04:18:32.079Z,12.10
2019-05-21T04:21:00.641Z,12.00
2019-05-21T04:23:29.261Z,12.10
2019-05-21T04:25:57.771Z,12.10
2019-05-21T04:28:26.341Z,11.90
2019-05-21T04:30:54.892Z,11.90
2019-05-21T04:33:23.493Z,11.90
2019-05-21T04:35:52.045Z,12.00
2019-05-21T04:38:20.605Z,11.90
2019-05-21T04:40:49.166Z,12.00
2019-05-21T04:43:17.673Z,12.10
2019-05-21T04:45:46.167Z,12.10
2019-05-21T04:48:14.724Z,12.00
2019-05-21T04:50:43.210Z,12.00
2019-05-21T04:53:11.766Z,12.10
2019-05-21T04:55:40.356Z,12.10
2019-05-21T04:58:08.890Z,11.90
2019-05-21T05:00:37.503Z,11.90
2019-05-21T05:03:06.124Z,11.90
2019-05-21T05:05:34.814Z,12.00
2019-05-21T05:08:03.478Z,11.90
2019-05-21T05:10:32.094Z,12.00
2019-05-21T05:13:00.728Z,12.00
2019-05-21T05:15:29.296Z,12.00
2019-05-21T05:17:57.860Z,12.10
2019-05-21T05:20:26.402Z,12.10
2019-05-21T05:22:54.906Z,12.00
2019-05-21T05:25:23.547Z,12.00
2019-05-21T05:27:52.069Z,11.90
2019-05-21T05:30:20.898Z,11.90
2019-05-21T05:32:50.141Z,11.80
2019-05-21T05:35:18.760Z,11.80
2019-05-21T05:37:48.988Z,11.90
2019-05-21T05:40:18.776Z,11.90
2019-05-21T05:42:47.339Z,11.80
2019-05-21T05:45:17.031Z,11.90
2019-05-21T05:47:45.540Z,11.90
2019-05-21T05:50:16.175Z,11.90
2019-05-21T05:52:44.737Z,11.70
2019-05-21T05:55:13.508Z,11.80
2019-05-21T05:57:42.057Z,11.80
2019-05-21T06:00:12.448Z,11.80
2019-05-21T06:02:41.131Z,11.80
2019-05-21T06:05:10.949Z,11.90
2019-05-21T06:07:39.459Z,11.90
2019-05-21T06:10:08.985Z,11.90
2019-05-21T06:12:37.552Z,11.90
2019-05-21T06:15:07.490Z,11.90
2019-05-21T06:17:36.034Z,11.90
2019-05-21T06:20:07.679Z,11.90
2019-05-21T06:22:36.331Z,11.90
2019-05-21T06:25:06.954Z,12.00
2019-05-21T06:27:35.852Z,11.90
2019-05-21T06:30:06.464Z,12.00
2019-05-21T06:32:35.018Z,11.90
2019-05-21T06:35:05.305Z,11.80
2019-05-21T06:37:33.887Z,11.70
2019-05-21T06:40:02.391Z,11.70
2019-05-21T06:42:30.941Z,11.80
2019-05-21T06:44:59.501Z,11.90
2019-05-21T06:47:27.996Z,11.90
2019-05-21T06:49:56.603Z,12.00
2019-05-21T06:52:25.143Z,11.80
2019-05-21T06:54:53.820Z,12.00
2019-05-21T06:57:22.399Z,11.90
2019-05-21T06:59:50.969Z,11.80
2019-05-21T07:02:19.545Z,11.90
2019-05-21T07:04:48.020Z,12.00
2019-05-21T07:07:16.529Z,11.90
2019-05-21T07:09:45.095Z,11.90
2019-05-21T07:12:13.592Z,12.00
2019-05-21T07:14:43.384Z,11.90
2019-05-21T07:17:11.974Z,12.00
2019-05-21T07:19:40.522Z,12.10
2019-05-21T07:22:13.090Z,12.00
2019-05-21T07:24:39.420Z,12.00
2019-05-21T07:27:08.001Z,12.00
2019-05-21T07:29:36.488Z,12.10
2019-05-21T07:32:05.085Z,12.10
2019-05-21T07:34:33.693Z,12.20
2019-05-21T07:37:02.171Z,12.20
2019-05-21T07:39:30.659Z,12.20
2019-05-21T07:41:59.159Z,12.00
2019-05-21T07:44:27.733Z,12.10
2019-05-21T07:46:56.219Z,12.20
2019-05-21T07:49:24.791Z,12.30
2019-05-21T07:51:53.338Z,12.30
2019-05-21T07:54:21.822Z,12.20
2019-05-21T07:56:50.394Z,12.20
2019-05-21T07:59:18.997Z,12.30
2019-05-21T08:01:48.399Z,12.30
2019-05-21T08:04:17.806Z,12.30
2019-05-21T08:06:46.387Z,12.30
2019-05-21T08:09:15.222Z,12.40
2019-05-21T08:11:46.894Z,12.30
2019-05-21T08:14:14.108Z,12.40
2019-05-21T08:16:42.828Z,12.40
2019-05-21T08:19:11.475Z,12.30
2019-05-21T08:21:40.017Z,12.30
2019-05-21T08:24:08.499Z,12.30
2019-05-21T08:26:37.054Z,12.30
2019-05-21T08:29:05.641Z,12.30
2019-05-21T08:31:34.280Z,12.30
2019-05-21T08:34:02.888Z,12.30
2019-05-21T08:36:31.403Z,12.30
2019-05-21T08:38:59.893Z,12.30
2019-05-21T08:41:28.391Z,12.30
2019-05-21T08:43:56.907Z,12.40
2019-05-21T08:46:25.479Z,12.50
2019-05-21T08:48:54.049Z,12.30
2019-05-21T08:51:22.627Z,12.30
2019-05-21T08:53:51.369Z,12.20
2019-05-21T08:56:19.875Z,12.40
2019-05-21T08:58:48.429Z,12.50
2019-05-21T09:01:16.995Z,12.50
2019-05-21T09:03:45.472Z,12.50
2019-05-21T09:06:14.001Z,12.50
2019-05-21T09:08:42.601Z,12.60
2019-05-21T09:11:11.229Z,12.50
2019-05-21T09:13:39.713Z,12.50
2019-05-21T09:16:08.247Z,12.70
2019-05-21T09:18:36.837Z,12.70
2019-05-21T09:21:05.476Z,12.70
2019-05-21T09:23:34.014Z,12.60
2019-05-21T09:26:02.599Z,12.60
2019-05-21T09:28:31.187Z,12.60
2019-05-21T09:31:02.017Z,12.70
2019-05-21T09:33:29.972Z,12.60
2019-05-21T09:35:58.453Z,12.60
2019-05-21T09:38:27.039Z,12.50
2019-05-21T09:40:55.599Z,12.50
2019-05-21T09:43:24.081Z,12.50
2019-05-21T09:45:52.643Z,12.50
2019-05-21T09:48:21.259Z,12.50
2019-05-21T09:50:49.907Z,12.50
2019-05-21T09:53:18.500Z,12.50
2019-05-21T09:55:47.057Z,12.70
2019-05-21T09:58:17.278Z,12.70
2019-05-21T10:00:50.268Z,12.70
2019-05-21T10:03:20.462Z,12.70
2019-05-21T10:05:49.042Z,12.80
2019-05-21T10:08:17.561Z,12.90
2019-05-21T10:10:46.080Z,12.90
2019-05-21T10:13:14.626Z,12.80
2019-05-21T10:15:43.205Z,12.70
2019-05-21T10:18:11.704Z,12.80
2019-05-21T10:20:40.332Z,12.80
2019-05-21T10:23:08.860Z,12.90
2019-05-21T10:25:37.440Z,12.70
2019-05-21T10:28:06.107Z,12.80
2019-05-21T10:30:34.654Z,12.80
2019-05-21T10:33:03.208Z,12.90
2019-05-21T10:35:31.797Z,13.00
2019-05-21T10:38:00.305Z,13.00
2019-05-21T10:40:28.900Z,13.00
2019-05-21T10:42:57.401Z,12.90
2019-05-21T10:45:25.909Z,12.90
2019-05-21T10:47:54.700Z,12.80
2019-05-21T10:50:23.340Z,12.90
2019-05-21T10:52:51.865Z,12.90
2019-05-21T10:55:20.420Z,13.00
2019-05-21T10:57:48.975Z,13.00
2019-05-21T11:00:22.921Z,13.00
2019-05-21T11:02:54.928Z,13.00
2019-05-21T11:05:43.472Z,13.10
2019-05-21T11:08:23.502Z,13.00
2019-05-21T11:10:43.311Z,13.00
2019-05-21T11:13:11.877Z,13.10
2019-05-21T11:15:40.502Z,13.10
2019-05-21T11:18:10.935Z,13.00
2019-05-21T11:20:39.469Z,13.10
2019-05-21T11:23:08.685Z,13.10
2019-05-21T11:25:37.184Z,13.20
2019-05-21T11:28:06.317Z,13.20
2019-05-21T11:30:35.119Z,13.20
2019-05-21T11:33:03.704Z,13.30
2019-05-21T11:35:35.589Z,13.40
2019-05-21T11:38:02.504Z,13.50
2019-05-21T11:40:31.450Z,13.70
2019-05-21T11:42:59.934Z,13.60
2019-05-21T11:45:32.352Z,13.50
2019-05-21T11:47:58.780Z,13.50
2019-05-21T11:50:27.314Z,13.60
2019-05-21T11:52:55.821Z,13.50
2019-05-21T11:55:24.415Z,13.60
2019-05-21T11:57:52.956Z,13.70
2019-05-21T12:00:23.362Z,13.60
2019-05-21T12:02:51.918Z,13.70
2019-05-21T12:05:20.537Z,13.70
2019-05-21T12:07:49.115Z,13.80
2019-05-21T12:10:17.653Z,13.80
2019-05-21T12:12:46.251Z,13.80
2019-05-21T12:15:15.199Z,13.80
2019-05-21T12:17:43.761Z,13.80
2019-05-21T12:20:13.008Z,13.80
2019-05-21T12:22:41.545Z,13.70
2019-05-21T12:25:10.568Z,13.70
2019-05-21T12:27:39.262Z,13.70
2019-05-21T12:30:08.927Z,13.80
2019-05-21T12:32:37.585Z,13.90
2019-05-21T12:35:07.149Z,13.80
2019-05-21T12:37:35.631Z,13.80
2019-05-21T12:40:06.833Z,13.80
2019-05-21T12:42:35.400Z,14.00
2019-05-21T12:45:05.419Z,14.00
2019-05-21T12:47:34.077Z,13.90
2019-05-21T12:50:02.726Z,14.00
2019-05-21T12:52:33.797Z,14.00
2019-05-21T12:55:01.809Z,14.00
2019-05-21T12:57:30.437Z,14.00
2019-05-21T12:59:58.980Z,13.90
2019-05-21T13:02:27.541Z,14.00
2019-05-21T13:04:56.186Z,14.00
2019-05-21T13:07:24.747Z,14.00
2019-05-21T13:09:53.299Z,14.10
2019-05-21T13:12:21.875Z,14.00
2019-05-21T13:14:50.356Z,14.00
2019-05-21T13:17:18.925Z,14.10
2019-05-21T13:19:47.571Z,14.10
2019-05-21T13:22:16.106Z,14.00
2019-05-21T13:24:44.688Z,14.00
2019-05-21T13:27:13.194Z,14.10
2019-05-21T13:29:41.708Z,14.00
2019-05-21T13:32:10.306Z,13.90
2019-05-21T13:34:38.852Z,13.90
2019-05-21T13:37:07.488Z,14.00
2019-05-21T13:39:48.870Z,14.00
2019-05-21T13:42:06.190Z,14.00
2019-05-21T13:44:34.759Z,14.00
2019-05-21T13:47:03.495Z,14.00
2019-05-21T13:49:32.116Z,14.00
2019-05-21T13:52:00.685Z,14.00
2019-05-21T13:54:29.226Z,14.10
2019-05-21T13:56:57.733Z,14.10
2019-05-21T13:59:26.314Z,14.10
2019-05-21T14:01:54.977Z,14.10
2019-05-21T14:04:23.602Z,14.20
2019-05-21T14:06:52.304Z,14.30
2019-05-21T14:09:20.786Z,14.20
2019-05-21T14:11:49.289Z,14.20
2019-05-21T14:14:17.833Z,14.10
2019-05-21T14:16:46.386Z,14.10
2019-05-21T14:19:15.047Z,14.10
2019-05-21T14:21:44.165Z,14.20
2019-05-21T14:24:12.749Z,14.20
2019-05-21T14:26:41.247Z,14.20
2019-05-21T14:29:09.738Z,14.10
2019-05-21T14:31:38.218Z,14.20
2019-05-21T14:34:06.796Z,14.30
2019-05-21T14:36:35.437Z,14.40
2019-05-21T14:39:07.303Z,14.30
2019-05-21T14:41:35.849Z,14.20
2019-05-21T14:44:05.261Z,14.30
2019-05-21T14:46:33.743Z,14.30
2019-05-21T14:49:02.219Z,14.40
2019-05-21T14:51:30.720Z,14.60
2019-05-21T14:54:05.608Z,14.50
2019-05-21T14:56:34.176Z,14.40
2019-05-21T14:59:02.771Z,14.50
2019-05-21T15:01:31.354Z,14.50
2019-05-21T15:03:59.938Z,14.50
2019-05-21T15:06:28.475Z,14.50
2019-05-21T15:08:57.133Z,14.40
2019-05-21T15:11:25.712Z,14.40
2019-05-21T15:13:54.298Z,14.40
2019-05-21T15:16:22.877Z,14.50
2019-05-21T15:18:51.345Z,14.40
2019-05-21T15:21:21.496Z,14.30
2019-05-21T15:23:50.024Z,14.30
2019-05-21T15:26:18.569Z,14.20
2019-05-21T15:28:47.140Z,14.40
2019-05-21T15:31:15.684Z,14.30
2019-05-21T15:33:44.528Z,14.30
2019-05-21T15:36:13.040Z,14.30
2019-05-21T15:38:49.923Z,14.40
2019-05-21T15:41:12.734Z,14.50
2019-05-21T15:43:41.536Z,14.40
2019-05-21T15:46:10.902Z,14.40
2019-05-21T15:48:39.374Z,14.40
2019-05-21T15:51:08.016Z,14.40
2019-05-21T15:53:36.498Z,14.50
2019-05-21T15:56:05.077Z,14.40
2019-05-21T15:58:33.644Z,14.30
2019-05-21T16:01:02.137Z,14.40
2019-05-21T16:03:30.630Z,14.30
2019-05-21T16:06:00.296Z,14.40
2019-05-21T16:08:28.978Z,14.20
2019-05-21T16:10:57.514Z,14.30
2019-05-21T16:13:26.096Z,14.10
2019-05-21T16:15:55.233Z,13.90
2019-05-21T16:18:24.158Z,14.00
2019-05-21T16:20:52.732Z,14.10
2019-05-21T16:23:22.581Z,13.90
2019-05-21T16:25:52.604Z,14.10
2019-05-21T16:28:21.117Z,14.00
2019-05-21T16:30:49.663Z,14.00
2019-05-21T16:33:18.472Z,14.10
2019-05-21T16:35:46.970Z,14.10
2019-05-21T16:38:15.634Z,14.10
2019-05-21T16:40:45.617Z,14.10
2019-05-21T16:43:14.126Z,14.10
2019-05-21T16:45:42.776Z,13.90
2019-05-21T16:48:11.416Z,13.70
2019-05-21T16:50:40.059Z,13.80
2019-05-21T16:53:08.605Z,14.00
2019-05-21T16:55:37.233Z,13.80
2019-05-21T16:58:05.824Z,13.80
2019-05-21T17:00:34.471Z,13.70
2019-05-21T17:03:03.056Z,13.60
2019-05-21T17:05:31.598Z,13.60
2019-05-21T17:08:00.176Z,13.70
2019-05-21T17:10:29.524Z,13.80
2019-05-21T17:12:58.013Z,13.70
2019-05-21T17:15:26.604Z,13.70
2019-05-21T17:17:55.175Z,13.60
2019-05-21T17:20:23.818Z,13.50
2019-05-21T17:22:52.406Z,13.40
2019-05-21T17:25:21.767Z,13.50
2019-05-21T17:27:50.478Z,13.50
2019-05-21T17:30:19.635Z,13.50
2019-05-21T17:32:48.144Z,13.30
2019-05-21T17:35:17.604Z,13.40
2019-05-21T17:37:46.231Z,13.40
2019-05-21T17:40:15.778Z,13.50
2019-05-21T17:42:44.556Z,13.40
2019-05-21T17:45:13.806Z,13.40
2019-05-21T17:47:42.294Z,13.30
2019-05-21T17:50:11.529Z,13.20
2019-05-21T17:52:40.108Z,13.30
2019-05-21T17:55:09.021Z,13.20
2019-05-21T17:57:37.797Z,13.30
2019-05-21T18:00:10.424Z,13.20
2019-05-21T18:02:39.543Z,13.20
2019-05-21T18:05:09.206Z,13.20
2019-05-21T18:07:38.570Z,13.10
2019-05-21T18:10:09.228Z,13.20
2019-05-21T18:12:38.931Z,13.10
2019-05-21T18:15:10.302Z,13.30
2019-05-21T18:17:39.416Z,13.40
2019-05-21T18:20:09.789Z,13.30
2019-05-21T18:22:40.220Z,13.20
2019-05-21T18:25:10.188Z,13.30
2019-05-21T18:27:39.097Z,13.20
2019-05-21T18:30:09.333Z,13.20
2019-05-21T18:32:38.274Z,13.20
2019-05-21T18:35:08.580Z,13.10
2019-05-21T18:37:38.541Z,13.30
2019-05-21T18:40:10.873Z,13.20
2019-05-21T18:42:39.442Z,13.20
2019-05-21T18:45:09.883Z,13.00
2019-05-21T18:47:38.599Z,13.20
2019-05-21T18:50:08.869Z,12.80
2019-05-21T18:52:38.935Z,12.90
2019-05-21T18:55:07.864Z,12.90
2019-05-21T18:57:36.516Z,12.90
2019-05-21T19:00:10.533Z,12.70
2019-05-21T19:02:39.179Z,12.80
2019-05-21T19:05:08.500Z,12.90
2019-05-21T19:07:37.099Z,12.80
2019-05-21T19:10:10.344Z,12.80
2019-05-21T19:12:39.798Z,12.90
2019-05-21T19:15:10.244Z,12.90
2019-05-21T19:17:38.925Z,12.80
2019-05-21T19:20:09.725Z,12.80
2019-05-21T19:22:38.453Z,12.90
2019-05-21T19:25:08.556Z,12.90
2019-05-21T19:27:37.175Z,12.90
2019-05-21T19:30:07.930Z,12.80
2019-05-21T19:32:36.582Z,12.80
2019-05-21T19:35:06.303Z,12.90
2019-05-21T19:37:34.858Z,12.80
2019-05-21T19:40:03.792Z,12.80
2019-05-21T19:42:32.387Z,12.80
2019-05-21T19:45:00.965Z,12.60
2019-05-21T19:47:29.543Z,12.80
2019-05-21T19:49:58.078Z,12.70
2019-05-21T19:52:26.655Z,12.80
2019-05-21T19:54:55.240Z,12.70
2019-05-21T19:57:25.598Z,12.60
2019-05-21T19:59:54.217Z,12.70
2019-05-21T20:02:22.908Z,12.70
2019-05-21T20:04:51.719Z,12.80
2019-05-21T20:07:21.645Z,12.80
2019-05-21T20:09:51.613Z,12.90
2019-05-21T20:12:20.828Z,12.70
2019-05-21T20:14:49.388Z,12.70
2019-05-21T20:17:18.179Z,12.60
2019-05-21T20:19:47.720Z,12.50
2019-05-21T20:22:16.925Z,12.40
2019-05-21T20:24:46.520Z,12.40
2019-05-21T20:27:15.528Z,12.50
2019-05-21T20:29:44.364Z,12.50
2019-05-21T20:32:14.168Z,12.40
2019-05-21T20:34:42.718Z,12.40
2019-05-21T20:37:12.999Z,12.40
2019-05-21T20:39:42.939Z,12.50
2019-05-21T20:42:13.081Z,12.30
2019-05-21T20:44:43.062Z,12.40
2019-05-21T20:47:13.469Z,12.40
2019-05-21T20:49:44.328Z,12.50
2019-05-21T20:52:18.703Z,12.50
2019-05-21T20:54:47.411Z,12.60
2019-05-21T20:57:16.920Z,12.50
2019-05-21T20:59:45.622Z,12.50
2019-05-21T21:02:14.538Z,12.70
2019-05-21T21:04:44.935Z,12.60
2019-05-21T21:07:14.657Z,12.60
2019-05-21T21:09:43.297Z,12.40
2019-05-21T21:12:12.659Z,12.40
2019-05-21T21:14:41.565Z,12.40
2019-05-21T21:17:11.491Z,12.50
2019-05-21T21:19:43.221Z,12.50
2019-05-21T21:22:11.800Z,12.50
2019-05-21T21:24:41.192Z,12.50
2019-05-21T21:27:11.740Z,12.60
2019-05-21T21:29:40.306Z,12.70
2019-05-21T21:32:09.125Z,12.50
2019-05-21T21:34:37.621Z,12.50
2019-05-21T21:37:06.982Z,12.60
2019-05-21T21:39:35.506Z,12.60
2019-05-21T21:42:05.534Z,12.50
2019-05-21T21:44:34.562Z,12.40
2019-05-21T21:47:03.412Z,12.40
2019-05-21T21:49:32.576Z,12.40
2019-05-21T21:52:03.748Z,12.50
2019-05-21T21:54:32.384Z,12.50
2019-05-21T21:57:01.039Z,12.50
2019-05-21T21:59:29.526Z,12.70
2019-05-21T22:02:01.673Z,12.70
2019-05-21T22:04:32.820Z,12.80
2019-05-21T22:07:01.829Z,12.60
2019-05-21T22:09:31.891Z,12.70
2019-05-21T22:12:02.464Z,12.70
2019-05-21T22:14:31.967Z,12.40
2019-05-21T22:17:00.855Z,12.30
2019-05-21T22:19:29.491Z,12.40
2019-05-21T22:21:58.113Z,12.50
2019-05-21T22:24:27.323Z,12.60
2019-05-21T22:26:56.007Z,12.50
2019-05-21T22:29:25.048Z,12.50
2019-05-21T22:31:53.634Z,12.50
2019-05-21T22:34:22.135Z,12.60
2019-05-21T22:36:50.760Z,12.60
2019-05-21T22:39:23.840Z,12.60
2019-05-21T22:41:52.552Z,12.60
2019-05-21T22:44:21.034Z,12.40
2019-05-21T22:46:50.163Z,12.40
2019-05-21T22:49:18.743Z,12.40
2019-05-21T22:51:47.350Z,12.50
2019-05-21T22:54:15.860Z,12.40
2019-05-21T22:56:44.416Z,12.50
2019-05-21T22:59:13.228Z,12.50
2019-05-21T23:01:42.777Z,12.30
2019-05-21T23:04:11.482Z,12.40
2019-05-21T23:06:41.334Z,12.30
2019-05-21T23:09:09.858Z,12.40
2019-05-21T23:11:38.402Z,12.40
2019-05-21T23:14:08.057Z,12.50
2019-05-21T23:16:36.679Z,12.50
2019-05-21T23:19:06.797Z,12.50
2019-05-21T23:21:35.437Z,12.50
2019-05-21T23:24:06.093Z,12.50
2019-05-21T23:26:34.925Z,12.60
2019-05-21T23:29:04.146Z,12.70
2019-05-21T23:31:32.778Z,12.60
2019-05-21T23:34:01.854Z,12.70
2019-05-21T23:36:30.772Z,12.50
2019-05-21T23:39:00.024Z,12.40
2019-05-21T23:41:29.964Z,12.40
2019-05-21T23:43:59.826Z,12.20
2019-05-21T23:46:29.729Z,12.30
2019-05-21T23:48:58.238Z,12.30
2019-05-21T23:51:26.810Z,12.20
2019-05-21T23:53:55.453Z,12.30
2019-05-21T23:56:24.229Z,12.30
2019-05-21T23:58:52.895Z,12.40
